sensor_id;sensor_type;location;lat;lon;timestamp;P1;durP1;ratioP1;P2;durP2;ratioP2
52530;SDS011;38441;52.894;6.040;2023-04-15T00:00:30;6.32;;;2.60;;
52530;SDS011;38441;52.894;6.040;2023-04-15T00:02:58;8.43;;;2.33;;
52530;SDS011;38441;52.894;6.040;2023-04-15T00:05:24;7.88;;;2.50;;
52530;SDS011;38441;52.894;6.040;2023-04-15T00:07:50;7.90;;;2.58;;
52530;SDS011;38441;52.894;6.040;2023-04-15T00:10:15;6.35;;;2.22;;
52530;SDS011;38441;52.894;6.040;2023-04-15T00:12:41;8.27;;;2.83;;
52530;SDS011;38441;52.894;6.040;2023-04-15T00:15:07;6.25;;;2.58;;
52530;SDS011;38441;52.894;6.040;2023-04-15T00:17:34;5.72;;;2.80;;
52530;SDS011;38441;52.894;6.040;2023-04-15T00:20:00;6.55;;;2.85;;
52530;SDS011;38441;52.894;6.040;2023-04-15T00:22:26;6.68;;;2.88;;
52530;SDS011;38441;52.894;6.040;2023-04-15T00:24:52;5.97;;;2.63;;
52530;SDS011;38441;52.894;6.040;2023-04-15T00:27:18;6.90;;;2.35;;
52530;SDS011;38441;52.894;6.040;2023-04-15T00:29:44;6.20;;;2.40;;
52530;SDS011;38441;52.894;6.040;2023-04-15T00:32:10;6.38;;;2.55;;
52530;SDS011;38441;52.894;6.040;2023-04-15T00:34:37;7.78;;;3.13;;
52530;SDS011;38441;52.894;6.040;2023-04-15T00:37:03;7.07;;;2.88;;
52530;SDS011;38441;52.894;6.040;2023-04-15T00:39:29;6.65;;;2.90;;
52530;SDS011;38441;52.894;6.040;2023-04-15T00:41:55;5.80;;;2.80;;
52530;SDS011;38441;52.894;6.040;2023-04-15T00:44:21;6.90;;;2.80;;
52530;SDS011;38441;52.894;6.040;2023-04-15T00:46:49;7.53;;;2.70;;
52530;SDS011;38441;52.894;6.040;2023-04-15T00:49:16;5.22;;;2.70;;
52530;SDS011;38441;52.894;6.040;2023-04-15T00:51:44;8.15;;;2.75;;
52530;SDS011;38441;52.894;6.040;2023-04-15T00:54:10;7.18;;;2.72;;
52530;SDS011;38441;52.894;6.040;2023-04-15T00:56:36;5.60;;;2.60;;
52530;SDS011;38441;52.894;6.040;2023-04-15T00:59:03;9.30;;;2.67;;
52530;SDS011;38441;52.894;6.040;2023-04-15T01:01:30;7.70;;;3.67;;
52530;SDS011;38441;52.894;6.040;2023-04-15T01:03:56;8.40;;;3.38;;
52530;SDS011;38441;52.894;6.040;2023-04-15T01:06:22;9.90;;;3.33;;
52530;SDS011;38441;52.894;6.040;2023-04-15T01:08:49;6.85;;;2.70;;
52530;SDS011;38441;52.894;6.040;2023-04-15T01:11:15;6.53;;;2.85;;
52530;SDS011;38441;52.894;6.040;2023-04-15T01:13:42;6.30;;;3.30;;
52530;SDS011;38441;52.894;6.040;2023-04-15T01:16:08;6.07;;;3.10;;
52530;SDS011;38441;52.894;6.040;2023-04-15T01:18:34;11.13;;;3.03;;
52530;SDS011;38441;52.894;6.040;2023-04-15T01:21:01;7.65;;;3.20;;
52530;SDS011;38441;52.894;6.040;2023-04-15T01:23:28;6.22;;;2.85;;
52530;SDS011;38441;52.894;6.040;2023-04-15T01:25:54;7.47;;;2.85;;
52530;SDS011;38441;52.894;6.040;2023-04-15T01:28:21;5.72;;;3.10;;
52530;SDS011;38441;52.894;6.040;2023-04-15T01:30:47;9.70;;;3.22;;
52530;SDS011;38441;52.894;6.040;2023-04-15T01:33:13;7.30;;;3.22;;
52530;SDS011;38441;52.894;6.040;2023-04-15T01:35:40;10.35;;;3.50;;
52530;SDS011;38441;52.894;6.040;2023-04-15T01:38:08;6.32;;;3.20;;
52530;SDS011;38441;52.894;6.040;2023-04-15T01:40:34;9.65;;;3.60;;
52530;SDS011;38441;52.894;6.040;2023-04-15T01:43:00;8.07;;;2.97;;
52530;SDS011;38441;52.894;6.040;2023-04-15T01:45:27;8.30;;;3.88;;
52530;SDS011;38441;52.894;6.040;2023-04-15T01:47:54;7.65;;;3.55;;
52530;SDS011;38441;52.894;6.040;2023-04-15T01:50:20;7.38;;;3.30;;
52530;SDS011;38441;52.894;6.040;2023-04-15T01:52:46;8.02;;;3.40;;
52530;SDS011;38441;52.894;6.040;2023-04-15T01:55:12;7.95;;;4.10;;
52530;SDS011;38441;52.894;6.040;2023-04-15T01:57:38;5.78;;;3.25;;
52530;SDS011;38441;52.894;6.040;2023-04-15T02:00:05;8.27;;;3.35;;
52530;SDS011;38441;52.894;6.040;2023-04-15T02:02:34;7.88;;;3.42;;
52530;SDS011;38441;52.894;6.040;2023-04-15T02:04:59;8.35;;;3.72;;
52530;SDS011;38441;52.894;6.040;2023-04-15T02:07:25;7.55;;;3.55;;
52530;SDS011;38441;52.894;6.040;2023-04-15T02:09:53;7.30;;;3.60;;
52530;SDS011;38441;52.894;6.040;2023-04-15T02:12:19;8.88;;;4.13;;
52530;SDS011;38441;52.894;6.040;2023-04-15T02:14:45;7.18;;;4.05;;
52530;SDS011;38441;52.894;6.040;2023-04-15T02:17:11;9.30;;;3.92;;
52530;SDS011;38441;52.894;6.040;2023-04-15T02:19:37;9.40;;;3.78;;
52530;SDS011;38441;52.894;6.040;2023-04-15T02:22:04;8.63;;;4.05;;
52530;SDS011;38441;52.894;6.040;2023-04-15T02:24:32;12.10;;;4.03;;
52530;SDS011;38441;52.894;6.040;2023-04-15T02:26:58;8.63;;;4.47;;
52530;SDS011;38441;52.894;6.040;2023-04-15T02:29:25;7.38;;;4.10;;
52530;SDS011;38441;52.894;6.040;2023-04-15T02:31:51;9.40;;;4.03;;
52530;SDS011;38441;52.894;6.040;2023-04-15T02:34:17;9.00;;;4.28;;
52530;SDS011;38441;52.894;6.040;2023-04-15T02:36:43;9.77;;;4.32;;
52530;SDS011;38441;52.894;6.040;2023-04-15T02:39:10;7.95;;;4.25;;
52530;SDS011;38441;52.894;6.040;2023-04-15T02:41:38;8.52;;;4.50;;
52530;SDS011;38441;52.894;6.040;2023-04-15T02:44:04;7.00;;;4.32;;
52530;SDS011;38441;52.894;6.040;2023-04-15T02:46:33;11.93;;;4.47;;
52530;SDS011;38441;52.894;6.040;2023-04-15T02:48:59;12.65;;;4.90;;
52530;SDS011;38441;52.894;6.040;2023-04-15T02:51:29;9.75;;;4.68;;
52530;SDS011;38441;52.894;6.040;2023-04-15T02:53:56;8.65;;;4.45;;
52530;SDS011;38441;52.894;6.040;2023-04-15T02:56:22;6.95;;;4.40;;
52530;SDS011;38441;52.894;6.040;2023-04-15T02:58:48;12.95;;;5.20;;
52530;SDS011;38441;52.894;6.040;2023-04-15T03:03:46;8.45;;;4.82;;
52530;SDS011;38441;52.894;6.040;2023-04-15T03:06:11;11.00;;;5.03;;
52530;SDS011;38441;52.894;6.040;2023-04-15T03:08:37;10.48;;;5.32;;
52530;SDS011;38441;52.894;6.040;2023-04-15T03:11:03;7.05;;;4.53;;
52530;SDS011;38441;52.894;6.040;2023-04-15T03:13:30;7.32;;;4.70;;
52530;SDS011;38441;52.894;6.040;2023-04-15T03:15:56;11.60;;;5.95;;
52530;SDS011;38441;52.894;6.040;2023-04-15T03:18:22;9.30;;;5.57;;
52530;SDS011;38441;52.894;6.040;2023-04-15T03:20:48;9.98;;;5.65;;
52530;SDS011;38441;52.894;6.040;2023-04-15T03:23:14;11.85;;;5.00;;
52530;SDS011;38441;52.894;6.040;2023-04-15T03:25:40;9.73;;;5.82;;
52530;SDS011;38441;52.894;6.040;2023-04-15T03:28:06;9.73;;;5.50;;
52530;SDS011;38441;52.894;6.040;2023-04-15T03:30:32;9.90;;;5.50;;
52530;SDS011;38441;52.894;6.040;2023-04-15T03:32:58;9.10;;;5.65;;
52530;SDS011;38441;52.894;6.040;2023-04-15T03:35:24;9.80;;;6.30;;
52530;SDS011;38441;52.894;6.040;2023-04-15T03:37:50;9.20;;;6.10;;
52530;SDS011;38441;52.894;6.040;2023-04-15T03:40:17;9.90;;;6.15;;
52530;SDS011;38441;52.894;6.040;2023-04-15T03:42:43;11.25;;;6.60;;
52530;SDS011;38441;52.894;6.040;2023-04-15T03:45:09;10.52;;;6.55;;
52530;SDS011;38441;52.894;6.040;2023-04-15T03:47:35;14.45;;;7.50;;
52530;SDS011;38441;52.894;6.040;2023-04-15T03:50:01;11.73;;;6.82;;
52530;SDS011;38441;52.894;6.040;2023-04-15T03:52:27;11.38;;;6.35;;
52530;SDS011;38441;52.894;6.040;2023-04-15T03:54:53;13.13;;;7.07;;
52530;SDS011;38441;52.894;6.040;2023-04-15T03:57:19;13.05;;;6.82;;
52530;SDS011;38441;52.894;6.040;2023-04-15T03:59:45;10.68;;;7.28;;
52530;SDS011;38441;52.894;6.040;2023-04-15T04:02:11;12.32;;;7.07;;
52530;SDS011;38441;52.894;6.040;2023-04-15T04:04:37;13.23;;;6.32;;
52530;SDS011;38441;52.894;6.040;2023-04-15T04:07:03;11.15;;;6.78;;
52530;SDS011;38441;52.894;6.040;2023-04-15T04:09:29;10.13;;;6.53;;
52530;SDS011;38441;52.894;6.040;2023-04-15T04:11:56;10.60;;;6.93;;
52530;SDS011;38441;52.894;6.040;2023-04-15T04:14:22;13.20;;;6.97;;
52530;SDS011;38441;52.894;6.040;2023-04-15T04:16:53;12.00;;;6.82;;
52530;SDS011;38441;52.894;6.040;2023-04-15T04:19:19;10.60;;;6.80;;
52530;SDS011;38441;52.894;6.040;2023-04-15T04:21:45;11.18;;;7.15;;
52530;SDS011;38441;52.894;6.040;2023-04-15T04:24:11;13.07;;;7.43;;
52530;SDS011;38441;52.894;6.040;2023-04-15T04:26:37;12.45;;;7.63;;
52530;SDS011;38441;52.894;6.040;2023-04-15T04:29:03;11.07;;;6.53;;
52530;SDS011;38441;52.894;6.040;2023-04-15T04:31:29;12.98;;;6.97;;
52530;SDS011;38441;52.894;6.040;2023-04-15T04:33:55;10.85;;;7.25;;
52530;SDS011;38441;52.894;6.040;2023-04-15T04:36:21;13.35;;;7.38;;
52530;SDS011;38441;52.894;6.040;2023-04-15T04:38:47;10.18;;;6.78;;
52530;SDS011;38441;52.894;6.040;2023-04-15T04:41:13;12.90;;;7.30;;
52530;SDS011;38441;52.894;6.040;2023-04-15T04:43:39;12.18;;;7.05;;
52530;SDS011;38441;52.894;6.040;2023-04-15T04:46:05;10.75;;;7.03;;
52530;SDS011;38441;52.894;6.040;2023-04-15T04:48:31;12.05;;;7.32;;
52530;SDS011;38441;52.894;6.040;2023-04-15T04:50:57;11.52;;;7.63;;
52530;SDS011;38441;52.894;6.040;2023-04-15T04:53:23;15.00;;;7.80;;
52530;SDS011;38441;52.894;6.040;2023-04-15T04:55:50;11.30;;;7.47;;
52530;SDS011;38441;52.894;6.040;2023-04-15T04:58:16;14.18;;;8.20;;
52530;SDS011;38441;52.894;6.040;2023-04-15T05:00:42;10.68;;;7.40;;
52530;SDS011;38441;52.894;6.040;2023-04-15T05:03:08;11.70;;;7.82;;
52530;SDS011;38441;52.894;6.040;2023-04-15T05:05:34;16.15;;;8.23;;
52530;SDS011;38441;52.894;6.040;2023-04-15T05:08:03;12.73;;;8.13;;
52530;SDS011;38441;52.894;6.040;2023-04-15T05:10:29;12.35;;;8.07;;
52530;SDS011;38441;52.894;6.040;2023-04-15T05:12:56;11.65;;;7.70;;
52530;SDS011;38441;52.894;6.040;2023-04-15T05:15:22;11.38;;;8.18;;
52530;SDS011;38441;52.894;6.040;2023-04-15T05:17:48;12.18;;;8.48;;
52530;SDS011;38441;52.894;6.040;2023-04-15T05:20:14;11.32;;;8.05;;
52530;SDS011;38441;52.894;6.040;2023-04-15T05:22:40;12.55;;;7.65;;
52530;SDS011;38441;52.894;6.040;2023-04-15T05:25:06;14.65;;;9.05;;
52530;SDS011;38441;52.894;6.040;2023-04-15T05:27:33;12.95;;;8.65;;
52530;SDS011;38441;52.894;6.040;2023-04-15T05:29:59;12.07;;;8.07;;
52530;SDS011;38441;52.894;6.040;2023-04-15T05:32:25;11.95;;;7.63;;
52530;SDS011;38441;52.894;6.040;2023-04-15T05:34:51;12.25;;;8.25;;
52530;SDS011;38441;52.894;6.040;2023-04-15T05:37:17;11.43;;;8.30;;
52530;SDS011;38441;52.894;6.040;2023-04-15T05:39:46;12.75;;;8.80;;
52530;SDS011;38441;52.894;6.040;2023-04-15T05:44:58;12.57;;;7.95;;
52530;SDS011;38441;52.894;6.040;2023-04-15T05:47:25;12.10;;;8.10;;
52530;SDS011;38441;52.894;6.040;2023-04-15T05:49:51;13.27;;;8.63;;
52530;SDS011;38441;52.894;6.040;2023-04-15T05:52:17;13.70;;;8.13;;
52530;SDS011;38441;52.894;6.040;2023-04-15T05:54:43;11.63;;;8.35;;
52530;SDS011;38441;52.894;6.040;2023-04-15T05:57:09;11.77;;;7.97;;
52530;SDS011;38441;52.894;6.040;2023-04-15T05:59:35;14.38;;;8.65;;
52530;SDS011;38441;52.894;6.040;2023-04-15T06:02:02;14.85;;;9.15;;
52530;SDS011;38441;52.894;6.040;2023-04-15T06:04:29;11.93;;;8.02;;
52530;SDS011;38441;52.894;6.040;2023-04-15T06:06:54;12.85;;;7.78;;
52530;SDS011;38441;52.894;6.040;2023-04-15T06:09:20;12.73;;;8.10;;
52530;SDS011;38441;52.894;6.040;2023-04-15T06:11:46;13.50;;;8.23;;
52530;SDS011;38441;52.894;6.040;2023-04-15T06:14:12;12.35;;;8.05;;
52530;SDS011;38441;52.894;6.040;2023-04-15T06:16:38;12.77;;;7.40;;
52530;SDS011;38441;52.894;6.040;2023-04-15T06:19:04;14.02;;;8.85;;
52530;SDS011;38441;52.894;6.040;2023-04-15T06:21:30;15.82;;;8.95;;
52530;SDS011;38441;52.894;6.040;2023-04-15T06:23:57;13.45;;;8.60;;
52530;SDS011;38441;52.894;6.040;2023-04-15T06:26:25;11.02;;;8.25;;
52530;SDS011;38441;52.894;6.040;2023-04-15T06:28:52;12.88;;;8.60;;
52530;SDS011;38441;52.894;6.040;2023-04-15T06:31:18;10.82;;;7.57;;
52530;SDS011;38441;52.894;6.040;2023-04-15T06:33:44;11.75;;;8.27;;
52530;SDS011;38441;52.894;6.040;2023-04-15T06:36:10;11.35;;;7.95;;
52530;SDS011;38441;52.894;6.040;2023-04-15T06:38:36;10.73;;;7.63;;
52530;SDS011;38441;52.894;6.040;2023-04-15T06:41:03;13.68;;;7.75;;
52530;SDS011;38441;52.894;6.040;2023-04-15T06:43:29;12.05;;;8.85;;
52530;SDS011;38441;52.894;6.040;2023-04-15T06:45:55;11.07;;;8.10;;
52530;SDS011;38441;52.894;6.040;2023-04-15T06:48:21;11.68;;;8.32;;
52530;SDS011;38441;52.894;6.040;2023-04-15T06:50:50;10.70;;;7.55;;
52530;SDS011;38441;52.894;6.040;2023-04-15T06:53:16;12.18;;;8.30;;
52530;SDS011;38441;52.894;6.040;2023-04-15T06:55:42;12.10;;;8.85;;
52530;SDS011;38441;52.894;6.040;2023-04-15T06:58:08;12.05;;;7.78;;
52530;SDS011;38441;52.894;6.040;2023-04-15T07:00:34;12.70;;;8.35;;
52530;SDS011;38441;52.894;6.040;2023-04-15T07:03:03;12.93;;;8.70;;
52530;SDS011;38441;52.894;6.040;2023-04-15T07:05:29;12.93;;;8.70;;
52530;SDS011;38441;52.894;6.040;2023-04-15T07:07:56;12.55;;;8.70;;
52530;SDS011;38441;52.894;6.040;2023-04-15T07:10:22;14.65;;;8.95;;
52530;SDS011;38441;52.894;6.040;2023-04-15T07:12:48;12.85;;;8.45;;
52530;SDS011;38441;52.894;6.040;2023-04-15T07:15:15;13.00;;;8.32;;
52530;SDS011;38441;52.894;6.040;2023-04-15T07:17:41;13.50;;;9.13;;
52530;SDS011;38441;52.894;6.040;2023-04-15T07:20:07;14.50;;;9.27;;
52530;SDS011;38441;52.894;6.040;2023-04-15T07:22:33;13.77;;;8.68;;
52530;SDS011;38441;52.894;6.040;2023-04-15T07:24:59;17.00;;;9.52;;
52530;SDS011;38441;52.894;6.040;2023-04-15T07:27:25;10.93;;;8.35;;
52530;SDS011;38441;52.894;6.040;2023-04-15T07:29:52;13.63;;;8.25;;
52530;SDS011;38441;52.894;6.040;2023-04-15T07:32:18;13.10;;;8.38;;
52530;SDS011;38441;52.894;6.040;2023-04-15T07:34:44;12.63;;;8.07;;
52530;SDS011;38441;52.894;6.040;2023-04-15T07:37:10;12.10;;;7.90;;
52530;SDS011;38441;52.894;6.040;2023-04-15T07:39:36;12.88;;;7.22;;
52530;SDS011;38441;52.894;6.040;2023-04-15T07:42:02;10.13;;;6.88;;
52530;SDS011;38441;52.894;6.040;2023-04-15T07:44:28;12.38;;;7.68;;
52530;SDS011;38441;52.894;6.040;2023-04-15T07:46:55;11.98;;;7.53;;
52530;SDS011;38441;52.894;6.040;2023-04-15T07:49:21;11.05;;;6.15;;
52530;SDS011;38441;52.894;6.040;2023-04-15T07:51:47;9.27;;;7.03;;
52530;SDS011;38441;52.894;6.040;2023-04-15T07:54:14;10.95;;;6.43;;
52530;SDS011;38441;52.894;6.040;2023-04-15T07:56:40;9.75;;;6.32;;
52530;SDS011;38441;52.894;6.040;2023-04-15T07:59:06;11.82;;;6.40;;
52530;SDS011;38441;52.894;6.040;2023-04-15T08:01:32;10.30;;;6.63;;
52530;SDS011;38441;52.894;6.040;2023-04-15T08:03:58;9.40;;;5.78;;
52530;SDS011;38441;52.894;6.040;2023-04-15T08:06:24;9.43;;;6.25;;
52530;SDS011;38441;52.894;6.040;2023-04-15T08:08:50;8.65;;;5.97;;
52530;SDS011;38441;52.894;6.040;2023-04-15T08:11:15;7.95;;;5.20;;
52530;SDS011;38441;52.894;6.040;2023-04-15T08:13:41;8.18;;;5.32;;
52530;SDS011;38441;52.894;6.040;2023-04-15T08:16:15;8.65;;;5.82;;
52530;SDS011;38441;52.894;6.040;2023-04-15T08:18:43;8.38;;;5.30;;
52530;SDS011;38441;52.894;6.040;2023-04-15T08:21:10;7.70;;;5.07;;
52530;SDS011;38441;52.894;6.040;2023-04-15T08:23:35;7.95;;;4.82;;
52530;SDS011;38441;52.894;6.040;2023-04-15T08:26:02;7.43;;;4.75;;
52530;SDS011;38441;52.894;6.040;2023-04-15T08:28:28;8.00;;;4.97;;
52530;SDS011;38441;52.894;6.040;2023-04-15T08:30:54;7.63;;;3.65;;
52530;SDS011;38441;52.894;6.040;2023-04-15T08:33:20;5.82;;;3.60;;
52530;SDS011;38441;52.894;6.040;2023-04-15T08:35:47;6.07;;;3.33;;
52530;SDS011;38441;52.894;6.040;2023-04-15T08:38:13;5.85;;;3.50;;
52530;SDS011;38441;52.894;6.040;2023-04-15T08:40:40;6.47;;;3.38;;
52530;SDS011;38441;52.894;6.040;2023-04-15T08:43:12;5.50;;;3.33;;
52530;SDS011;38441;52.894;6.040;2023-04-15T08:45:44;6.10;;;3.28;;
52530;SDS011;38441;52.894;6.040;2023-04-15T08:48:13;4.03;;;2.65;;
52530;SDS011;38441;52.894;6.040;2023-04-15T08:50:42;4.35;;;2.88;;
52530;SDS011;38441;52.894;6.040;2023-04-15T08:53:09;4.80;;;2.70;;
52530;SDS011;38441;52.894;6.040;2023-04-15T08:55:35;7.07;;;2.35;;
52530;SDS011;38441;52.894;6.040;2023-04-15T08:58:07;5.80;;;3.25;;
52530;SDS011;38441;52.894;6.040;2023-04-15T09:00:33;5.13;;;2.58;;
52530;SDS011;38441;52.894;6.040;2023-04-15T09:02:59;6.50;;;2.90;;
52530;SDS011;38441;52.894;6.040;2023-04-15T09:05:26;8.27;;;3.40;;
52530;SDS011;38441;52.894;6.040;2023-04-15T09:07:51;4.20;;;2.70;;
52530;SDS011;38441;52.894;6.040;2023-04-15T09:10:17;6.30;;;3.28;;
52530;SDS011;38441;52.894;6.040;2023-04-15T09:12:43;5.88;;;3.13;;
52530;SDS011;38441;52.894;6.040;2023-04-15T09:15:09;8.65;;;3.60;;
52530;SDS011;38441;52.894;6.040;2023-04-15T09:17:40;6.95;;;3.65;;
52530;SDS011;38441;52.894;6.040;2023-04-15T09:20:11;5.10;;;3.15;;
52530;SDS011;38441;52.894;6.040;2023-04-15T09:22:39;8.43;;;3.22;;
52530;SDS011;38441;52.894;6.040;2023-04-15T09:25:27;6.13;;;2.70;;
52530;SDS011;38441;52.894;6.040;2023-04-15T09:28:01;6.18;;;2.92;;
52530;SDS011;38441;52.894;6.040;2023-04-15T09:30:27;4.35;;;2.58;;
52530;SDS011;38441;52.894;6.040;2023-04-15T09:32:55;5.18;;;2.65;;
52530;SDS011;38441;52.894;6.040;2023-04-15T09:35:22;6.30;;;2.63;;
52530;SDS011;38441;52.894;6.040;2023-04-15T09:37:49;4.85;;;2.50;;
52530;SDS011;38441;52.894;6.040;2023-04-15T09:40:34;5.75;;;2.63;;
52530;SDS011;38441;52.894;6.040;2023-04-15T09:43:01;5.43;;;2.65;;
52530;SDS011;38441;52.894;6.040;2023-04-15T09:45:29;5.63;;;2.42;;
52530;SDS011;38441;52.894;6.040;2023-04-15T09:47:56;5.78;;;2.30;;
52530;SDS011;38441;52.894;6.040;2023-04-15T09:50:25;4.20;;;2.60;;
52530;SDS011;38441;52.894;6.040;2023-04-15T09:52:53;6.88;;;2.53;;
52530;SDS011;38441;52.894;6.040;2023-04-15T09:55:20;7.28;;;2.53;;
52530;SDS011;38441;52.894;6.040;2023-04-15T09:57:46;6.28;;;2.65;;
52530;SDS011;38441;52.894;6.040;2023-04-15T10:00:12;4.15;;;1.67;;
52530;SDS011;38441;52.894;6.040;2023-04-15T10:02:39;5.68;;;2.10;;
52530;SDS011;38441;52.894;6.040;2023-04-15T10:05:06;4.15;;;1.95;;
52530;SDS011;38441;52.894;6.040;2023-04-15T10:07:34;4.75;;;2.45;;
52530;SDS011;38441;52.894;6.040;2023-04-15T10:10:00;5.82;;;2.40;;
52530;SDS011;38441;52.894;6.040;2023-04-15T10:12:28;5.80;;;2.42;;
52530;SDS011;38441;52.894;6.040;2023-04-15T10:14:57;5.45;;;2.03;;
52530;SDS011;38441;52.894;6.040;2023-04-15T10:17:25;2.92;;;1.80;;
52530;SDS011;38441;52.894;6.040;2023-04-15T10:19:53;2.90;;;1.60;;
52530;SDS011;38441;52.894;6.040;2023-04-15T10:22:20;3.95;;;1.67;;
52530;SDS011;38441;52.894;6.040;2023-04-15T10:24:47;2.50;;;1.30;;
52530;SDS011;38441;52.894;6.040;2023-04-15T10:27:14;2.15;;;1.30;;
52530;SDS011;38441;52.894;6.040;2023-04-15T10:29:41;2.72;;;1.20;;
52530;SDS011;38441;52.894;6.040;2023-04-15T10:32:07;3.08;;;1.40;;
52530;SDS011;38441;52.894;6.040;2023-04-15T10:34:34;4.15;;;1.63;;
52530;SDS011;38441;52.894;6.040;2023-04-15T10:37:01;3.35;;;1.15;;
52530;SDS011;38441;52.894;6.040;2023-04-15T10:39:41;2.22;;;1.27;;
52530;SDS011;38441;52.894;6.040;2023-04-15T10:42:11;2.03;;;1.13;;
52530;SDS011;38441;52.894;6.040;2023-04-15T10:47:09;3.60;;;1.15;;
52530;SDS011;38441;52.894;6.040;2023-04-15T10:49:58;1.53;;;0.83;;
52530;SDS011;38441;52.894;6.040;2023-04-15T10:52:25;3.10;;;1.05;;
52530;SDS011;38441;52.894;6.040;2023-04-15T10:57:38;2.17;;;0.98;;
52530;SDS011;38441;52.894;6.040;2023-04-15T11:02:54;4.53;;;0.85;;
52530;SDS011;38441;52.894;6.040;2023-04-15T11:05:22;3.83;;;0.90;;
52530;SDS011;38441;52.894;6.040;2023-04-15T11:08:11;3.70;;;1.00;;
52530;SDS011;38441;52.894;6.040;2023-04-15T11:13:03;1.88;;;0.90;;
52530;SDS011;38441;52.894;6.040;2023-04-15T11:15:39;4.35;;;1.25;;
52530;SDS011;38441;52.894;6.040;2023-04-15T11:18:19;3.17;;;0.88;;
52530;SDS011;38441;52.894;6.040;2023-04-15T11:20:47;2.22;;;0.70;;
52530;SDS011;38441;52.894;6.040;2023-04-15T11:23:18;1.90;;;0.80;;
52530;SDS011;38441;52.894;6.040;2023-04-15T11:25:51;3.70;;;0.90;;
52530;SDS011;38441;52.894;6.040;2023-04-15T11:28:19;2.50;;;0.70;;
52530;SDS011;38441;52.894;6.040;2023-04-15T11:30:45;2.72;;;0.90;;
52530;SDS011;38441;52.894;6.040;2023-04-15T11:33:11;1.70;;;0.80;;
52530;SDS011;38441;52.894;6.040;2023-04-15T11:35:39;3.17;;;0.93;;
52530;SDS011;38441;52.894;6.040;2023-04-15T11:38:09;5.85;;;2.40;;
52530;SDS011;38441;52.894;6.040;2023-04-15T11:40:38;50.10;;;27.65;;
52530;SDS011;38441;52.894;6.040;2023-04-15T11:43:06;2.70;;;1.40;;
52530;SDS011;38441;52.894;6.040;2023-04-15T11:48:24;6.15;;;1.95;;
52530;SDS011;38441;52.894;6.040;2023-04-15T11:50:54;3.25;;;1.80;;
52530;SDS011;38441;52.894;6.040;2023-04-15T11:53:22;5.75;;;1.60;;
52530;SDS011;38441;52.894;6.040;2023-04-15T11:55:50;3.42;;;1.55;;
52530;SDS011;38441;52.894;6.040;2023-04-15T11:58:18;5.45;;;1.58;;
52530;SDS011;38441;52.894;6.040;2023-04-15T12:00:52;2.40;;;1.33;;
52530;SDS011;38441;52.894;6.040;2023-04-15T12:03:23;5.05;;;1.30;;
52530;SDS011;38441;52.894;6.040;2023-04-15T12:06:02;13.63;;;5.55;;
52530;SDS011;38441;52.894;6.040;2023-04-15T12:14:06;9.80;;;2.97;;
52530;SDS011;38441;52.894;6.040;2023-04-15T12:16:37;9.13;;;5.45;;
52530;SDS011;38441;52.894;6.040;2023-04-15T12:19:05;8.15;;;3.55;;
52530;SDS011;38441;52.894;6.040;2023-04-15T12:21:34;5.43;;;3.00;;
52530;SDS011;38441;52.894;6.040;2023-04-15T12:24:01;6.32;;;3.42;;
52530;SDS011;38441;52.894;6.040;2023-04-15T12:26:29;9.48;;;4.68;;
52530;SDS011;38441;52.894;6.040;2023-04-15T12:29:02;15.23;;;5.88;;
52530;SDS011;38441;52.894;6.040;2023-04-15T12:31:34;9.20;;;4.03;;
52530;SDS011;38441;52.894;6.040;2023-04-15T12:34:05;7.22;;;3.53;;
52530;SDS011;38441;52.894;6.040;2023-04-15T12:36:33;9.27;;;4.85;;
52530;SDS011;38441;52.894;6.040;2023-04-15T12:39:02;6.18;;;4.22;;
52530;SDS011;38441;52.894;6.040;2023-04-15T12:41:31;9.57;;;4.63;;
52530;SDS011;38441;52.894;6.040;2023-04-15T12:43:57;7.50;;;3.22;;
52530;SDS011;38441;52.894;6.040;2023-04-15T12:46:23;17.23;;;8.15;;
52530;SDS011;38441;52.894;6.040;2023-04-15T12:48:50;7.82;;;3.13;;
52530;SDS011;38441;52.894;6.040;2023-04-15T12:51:19;11.70;;;3.97;;
52530;SDS011;38441;52.894;6.040;2023-04-15T12:53:47;13.63;;;5.07;;
52530;SDS011;38441;52.894;6.040;2023-04-15T12:56:13;21.73;;;8.55;;
52530;SDS011;38441;52.894;6.040;2023-04-15T12:58:41;9.65;;;3.65;;
52530;SDS011;38441;52.894;6.040;2023-04-15T13:01:07;12.95;;;4.35;;
52530;SDS011;38441;52.894;6.040;2023-04-15T13:03:34;15.57;;;6.18;;
52530;SDS011;38441;52.894;6.040;2023-04-15T13:06:00;12.88;;;4.95;;
52530;SDS011;38441;52.894;6.040;2023-04-15T13:08:28;6.78;;;2.95;;
52530;SDS011;38441;52.894;6.040;2023-04-15T13:10:55;13.55;;;5.07;;
52530;SDS011;38441;52.894;6.040;2023-04-15T13:13:20;8.50;;;3.13;;
52530;SDS011;38441;52.894;6.040;2023-04-15T13:15:46;10.15;;;4.47;;
52530;SDS011;38441;52.894;6.040;2023-04-15T13:18:12;8.90;;;2.78;;
52530;SDS011;38441;52.894;6.040;2023-04-15T13:20:38;9.05;;;2.35;;
52530;SDS011;38441;52.894;6.040;2023-04-15T13:23:04;6.90;;;2.03;;
52530;SDS011;38441;52.894;6.040;2023-04-15T13:25:30;7.57;;;2.13;;
52530;SDS011;38441;52.894;6.040;2023-04-15T13:27:56;3.95;;;1.48;;
52530;SDS011;38441;52.894;6.040;2023-04-15T13:30:22;9.68;;;2.17;;
52530;SDS011;38441;52.894;6.040;2023-04-15T13:32:48;9.75;;;2.97;;
52530;SDS011;38441;52.894;6.040;2023-04-15T13:35:15;7.80;;;2.72;;
52530;SDS011;38441;52.894;6.040;2023-04-15T13:37:40;7.50;;;1.73;;
52530;SDS011;38441;52.894;6.040;2023-04-15T13:40:06;7.82;;;2.33;;
52530;SDS011;38441;52.894;6.040;2023-04-15T13:42:35;8.07;;;1.98;;
52530;SDS011;38441;52.894;6.040;2023-04-15T13:45:01;6.18;;;1.60;;
52530;SDS011;38441;52.894;6.040;2023-04-15T13:47:27;7.53;;;1.30;;
52530;SDS011;38441;52.894;6.040;2023-04-15T13:49:53;8.05;;;1.63;;
52530;SDS011;38441;52.894;6.040;2023-04-15T13:52:21;4.90;;;1.13;;
52530;SDS011;38441;52.894;6.040;2023-04-15T13:54:47;6.03;;;1.05;;
52530;SDS011;38441;52.894;6.040;2023-04-15T13:57:13;8.57;;;2.72;;
52530;SDS011;38441;52.894;6.040;2023-04-15T13:59:38;8.98;;;1.50;;
52530;SDS011;38441;52.894;6.040;2023-04-15T14:02:05;5.82;;;1.40;;
52530;SDS011;38441;52.894;6.040;2023-04-15T14:04:31;11.30;;;2.15;;
52530;SDS011;38441;52.894;6.040;2023-04-15T14:06:57;7.43;;;1.35;;
52530;SDS011;38441;52.894;6.040;2023-04-15T14:09:23;8.60;;;1.08;;
52530;SDS011;38441;52.894;6.040;2023-04-15T14:11:49;5.28;;;1.52;;
52530;SDS011;38441;52.894;6.040;2023-04-15T14:14:15;7.53;;;2.63;;
52530;SDS011;38441;52.894;6.040;2023-04-15T14:16:41;12.05;;;5.43;;
52530;SDS011;38441;52.894;6.040;2023-04-15T14:19:07;15.55;;;6.30;;
52530;SDS011;38441;52.894;6.040;2023-04-15T14:21:33;12.45;;;5.32;;
52530;SDS011;38441;52.894;6.040;2023-04-15T14:23:59;15.23;;;5.03;;
52530;SDS011;38441;52.894;6.040;2023-04-15T14:26:25;13.77;;;4.57;;
52530;SDS011;38441;52.894;6.040;2023-04-15T14:28:51;16.98;;;5.65;;
52530;SDS011;38441;52.894;6.040;2023-04-15T14:31:17;14.90;;;5.00;;
52530;SDS011;38441;52.894;6.040;2023-04-15T14:33:43;18.30;;;7.07;;
52530;SDS011;38441;52.894;6.040;2023-04-15T14:36:09;18.63;;;6.68;;
52530;SDS011;38441;52.894;6.040;2023-04-15T14:38:35;11.07;;;3.25;;
52530;SDS011;38441;52.894;6.040;2023-04-15T14:41:05;19.60;;;7.68;;
52530;SDS011;38441;52.894;6.040;2023-04-15T14:43:32;27.92;;;9.23;;
52530;SDS011;38441;52.894;6.040;2023-04-15T14:45:58;30.00;;;11.80;;
52530;SDS011;38441;52.894;6.040;2023-04-15T14:48:24;19.20;;;8.95;;
52530;SDS011;38441;52.894;6.040;2023-04-15T14:50:50;13.02;;;3.47;;
52530;SDS011;38441;52.894;6.040;2023-04-15T14:53:16;6.30;;;1.77;;
52530;SDS011;38441;52.894;6.040;2023-04-15T14:55:42;9.75;;;1.75;;
52530;SDS011;38441;52.894;6.040;2023-04-15T14:58:09;6.70;;;1.50;;
52530;SDS011;38441;52.894;6.040;2023-04-15T15:00:35;6.85;;;1.50;;
52530;SDS011;38441;52.894;6.040;2023-04-15T15:03:03;6.45;;;1.38;;
52530;SDS011;38441;52.894;6.040;2023-04-15T15:05:36;9.95;;;2.10;;